This is the latest recevied weather packets stored in our database for station/object SQ5SUI-3. If no packets are shown the sender has not sent any weather packets the latest 10 day(s).
| Time | Temp. | Humidity | Pressure | Rain* | Wind** | Luminosity | Snow |
|---|---|---|---|---|---|---|---|
| 1777869058 | 13.33° C | 52% | 1011.3 hPa | 0 mm | - | - | - |
| 1777867260 | 12.22° C | 52% | 1011.8 hPa | 0 mm | - | - | - |
| 1777865459 | 10.56° C | 60% | 1011.9 hPa | 0 mm | - | - | - |
| 1777863660 | 11.11° C | 55% | 1012 hPa | 0 mm | - | - | - |
| 1777861858 | 12.78° C | 50% | 1011.9 hPa | 0 mm | - | - | - |
| 1777860059 | 12.78° C | 49% | 1011.9 hPa | 0 mm | - | - | - |
| 1777858258 | 13.89° C | 46% | 1011.8 hPa | 0 mm | - | - | - |
| 1777856459 | 12.22° C | 52% | 1011.7 hPa | 0 mm | - | - | - |
| 1777854659 | 12.22° C | 51% | 1011.6 hPa | 0 mm | - | - | - |
| 1777852860 | 13.89° C | 46% | 1011.7 hPa | 0 mm | - | - | - |
| 1777851059 | 12.22° C | 53% | 1011.9 hPa | 0 mm | - | - | - |
| 1777849259 | 11.67° C | 55% | 1012 hPa | 0 mm | - | - | - |
| 1777847459 | 12.22° C | 51% | 1012 hPa | 0 mm | - | - | - |
| 1777845658 | 13.33° C | 49% | 1012.2 hPa | 0 mm | - | - | - |
| 1777843859 | 13.89° C | 46% | 1012.4 hPa | 0 mm | - | - | - |
| 1777842058 | 13.89° C | 44% | 1012.3 hPa | 0 mm | - | - | - |
| 1777840260 | 14.44° C | 42% | 1012.6 hPa | 0 mm | - | - | - |
| 1777838459 | 15.56° C | 40% | 1012.3 hPa | 0 mm | - | - | - |
| 1777836659 | 16.11° C | 37% | 1012.4 hPa | 0 mm | - | - | - |
| 1777834860 | 17.22° C | 32% | 1012.7 hPa | 0 mm | - | - | - |
| 1777833059 | 17.78° C | 32% | 1012.8 hPa | 0 mm | - | - | - |
| 1777831259 | 19.44° C | 28% | 1013.3 hPa | 0 mm | - | - | - |
| 1777829459 | 22.22° C | 19% | 1013.5 hPa | 0 mm | - | - | - |
| 1777827659 | 24.44° C | 15% | 1013.5 hPa | 0 mm | - | - | - |
| 1777825859 | 25.56° C | 14% | 1013.4 hPa | 0 mm | - | - | - |
* Rain latest hour (hover to see other rain measurements)
** Current wind speed in m/s (hover to see current wind gust speed)